IGO6383 VEIM-VIDP
Flight info
| Callsign | IGO6383 |
|---|---|
| Flight time | N/A |
| Altitude | 30000 |
| Route | 30LOC DCT KKU W53 GGT Q18 ELPUR/N0463F340 Z2 JAL R594 SSB DCT DP503 DCT DP502 DCT FS811 DCT CF11R DCT BIPAN DCT FI10 DCT ML10 DCT ML28 |
| Aircraft | A21N/M-SDE3FGHIRWY/LB1 |
Departure
| Time | N/A |
|---|---|
| Airport | Bir Tikendrajit International Airport (VEIM) |
Arrival
| Time | 2026-04-30 10:04 |
|---|---|
| Airport | Indira Gandhi International Airport (VIDP) |
| Time | Latitude | Longitude | Altitude | Speed | Heading |
|---|---|---|---|---|---|
| 2026-04-30 10:00 | 28.56522 | 76.92632 | 2521 ft | 171 kts | 84° |
| 2026-04-30 10:01 | 28.56772 | 76.95259 | 2544 ft | 163 kts | 83° |
| 2026-04-30 10:01 | 28.56852 | 76.96539 | 2526 ft | 164 kts | 89° |
| 2026-04-30 10:01 | 28.56789 | 76.97822 | 2358 ft | 163 kts | 97° |
| 2026-04-30 10:02 | 28.56403 | 77.00352 | 1959 ft | 163 kts | 103° |
| 2026-04-30 10:02 | 28.56147 | 77.01588 | 1761 ft | 163 kts | 106° |
| 2026-04-30 10:02 | 28.55879 | 77.02805 | 1579 ft | 162 kts | 104° |
| 2026-04-30 10:02 | 28.55616 | 77.04022 | 1362 ft | 163 kts | 105° |
| 2026-04-30 10:03 | 28.55343 | 77.05270 | 1186 ft | 167 kts | 106° |
| 2026-04-30 10:03 | 28.55074 | 77.06535 | 984 ft | 166 kts | 105° |
| 2026-04-30 10:03 | 28.54818 | 77.07739 | 804 ft | 153 kts | 105° |
| 2026-04-30 10:03 | 28.54584 | 77.08818 | 779 ft | 121 kts | 102° |
| 2026-04-30 10:04 | 28.54430 | 77.09531 | 779 ft | 60 kts | 102° |
| 2026-04-30 10:04 | 28.54376 | 77.09847 | 779 ft | 33 kts | 88° |
| 2026-04-30 10:04 | 28.54399 | 77.10004 | 779 ft | 13 kts | 73° |
| 2026-04-30 10:04 | 28.54428 | 77.10111 | 779 ft | 14 kts | 72° |
| 2026-04-30 10:05 | 28.54459 | 77.10226 | 779 ft | 15 kts | 74° |
| 2026-04-30 10:05 | 28.54443 | 77.10349 | 779 ft | 16 kts | 105° |
| 2026-04-30 10:05 | 28.54415 | 77.10468 | 779 ft | 16 kts | 104° |
| 2026-04-30 10:05 | 28.54390 | 77.10577 | 779 ft | 17 kts | 105° |
| 2026-04-30 10:06 | 28.54359 | 77.10707 | 779 ft | 16 kts | 105° |
| 2026-04-30 10:06 | 28.54329 | 77.10838 | 779 ft | 16 kts | 104° |
| 2026-04-30 10:06 | 28.54301 | 77.10960 | 779 ft | 15 kts | 104° |
| 2026-04-30 10:06 | 28.54295 | 77.11073 | 779 ft | 14 kts | 56° |
| 2026-04-30 10:07 | 28.54382 | 77.11109 | 779 ft | 13 kts | 11° |
| 2026-04-30 10:07 | 28.54472 | 77.11132 | 779 ft | 13 kts | 13° |
| 2026-04-30 10:07 | 28.54562 | 77.11159 | 779 ft | 13 kts | 15° |
| 2026-04-30 10:07 | 28.54651 | 77.11189 | 779 ft | 13 kts | 16° |
| 2026-04-30 10:08 | 28.54741 | 77.11215 | 779 ft | 13 kts | 14° |
| 2026-04-30 10:08 | 28.54834 | 77.11243 | 779 ft | 14 kts | 14° |
| 2026-04-30 10:08 | 28.54938 | 77.11275 | 779 ft | 16 kts | 15° |
| 2026-04-30 10:08 | 28.55049 | 77.11307 | 779 ft | 17 kts | 14° |
| 2026-04-30 10:09 | 28.55150 | 77.11337 | 779 ft | 16 kts | 15° |
| 2026-04-30 10:09 | 28.55241 | 77.11364 | 779 ft | 16 kts | 13° |
| 2026-04-30 10:09 | 28.55334 | 77.11391 | 779 ft | 15 kts | 15° |
| 2026-04-30 10:09 | 28.55441 | 77.11423 | 779 ft | 15 kts | 13° |
| 2026-04-30 10:10 | 28.55555 | 77.11458 | 779 ft | 15 kts | 15° |
| 2026-04-30 10:10 | 28.55652 | 77.11487 | 779 ft | 15 kts | 15° |
| 2026-04-30 10:10 | 28.55761 | 77.11520 | 779 ft | 14 kts | 15° |
| 2026-04-30 10:10 | 28.55819 | 77.11574 | 779 ft | 11 kts | 85° |
| 2026-04-30 10:11 | 28.55801 | 77.11661 | 779 ft | 11 kts | 105° |
| 2026-04-30 10:11 | 28.55810 | 77.11741 | 779 ft | 10 kts | 41° |
| 2026-04-30 10:11 | 28.55873 | 77.11764 | 779 ft | 10 kts | 16° |
| 2026-04-30 10:11 | 28.55940 | 77.11785 | 779 ft | 10 kts | 15° |
| 2026-04-30 10:12 | 28.56013 | 77.11807 | 779 ft | 11 kts | 15° |
| 2026-04-30 10:12 | 28.56079 | 77.11823 | 779 ft | 11 kts | 2° |
| 2026-04-30 10:12 | 28.56126 | 77.11768 | 779 ft | 10 kts | 289° |
| 2026-04-30 10:12 | 28.56180 | 77.11736 | 779 ft | 9 kts | 15° |
| 2026-04-30 10:13 | 28.56245 | 77.11755 | 779 ft | 10 kts | 14° |
| 2026-04-30 10:13 | 28.56298 | 77.11748 | 779 ft | 8 kts | 292° |
| 2026-04-30 10:13 | 28.56318 | 77.11682 | 779 ft | 9 kts | 287° |
| 2026-04-30 10:13 | 28.56330 | 77.11660 | 779 ft | 2 kts | 332° |
| 2026-04-30 10:14 | 28.56351 | 77.11655 | 779 ft | 3 kts | 4° |
| 2026-04-30 10:14 | 28.56382 | 77.11662 | 779 ft | 4 kts | 13° |
| 2026-04-30 10:14 | 28.56405 | 77.11668 | 779 ft | 0 kts | 13° |